createdAt,value
2019-06-26T00:01:19.111Z,101557.66
2019-06-26T00:03:50.345Z,101551.00
2019-06-26T00:06:21.609Z,101546.81
2019-06-26T00:08:52.820Z,101546.54
2019-06-26T00:11:24.004Z,101546.27
2019-06-26T00:13:55.226Z,101559.35
2019-06-26T00:16:26.437Z,101562.37
2019-06-26T00:18:57.662Z,101556.80
2019-06-26T00:21:28.843Z,101558.80
2019-06-26T00:24:00.002Z,101562.09
2019-06-26T00:26:31.173Z,101560.43
2019-06-26T00:29:02.329Z,101562.64
2019-06-26T00:31:33.619Z,101561.24
2019-06-26T00:34:04.891Z,101565.98
2019-06-26T00:36:36.060Z,101559.03
2019-06-26T00:39:07.679Z,101563.45
2019-06-26T00:41:38.836Z,101569.30
2019-06-26T00:44:09.984Z,101568.47
2019-06-26T00:46:41.095Z,101561.53
2019-06-26T00:49:12.429Z,101559.05
2019-06-26T00:51:43.616Z,101564.02
2019-06-26T00:54:14.921Z,101564.28
2019-06-26T00:56:46.253Z,101559.56
2019-06-26T00:59:17.455Z,101560.41
2019-06-26T01:01:48.718Z,101568.19
2019-06-26T01:04:33.506Z,101564.28
2019-06-26T01:07:04.769Z,101558.46
2019-06-26T01:09:35.983Z,101565.66
2019-06-26T01:12:07.258Z,101564.59
2019-06-26T01:14:38.607Z,101568.45
2019-06-26T01:17:09.877Z,101565.69
2019-06-26T01:19:41.187Z,101565.13
2019-06-26T01:22:12.466Z,101565.94
2019-06-26T01:24:43.722Z,101560.67
2019-06-26T01:27:14.923Z,101569.54
2019-06-26T01:29:46.252Z,101567.00
2019-06-26T01:32:17.571Z,101564.23
2019-06-26T01:34:48.786Z,101566.77
2019-06-26T01:37:20.065Z,101567.31
2019-06-26T01:39:51.401Z,101565.92
2019-06-26T01:42:22.681Z,101567.02
2019-06-26T01:44:53.896Z,101567.52
2019-06-26T01:47:25.189Z,101570.84
2019-06-26T01:49:56.528Z,101571.91
2019-06-26T01:52:27.726Z,101574.45
2019-06-26T01:54:59.036Z,101572.26
2019-06-26T01:57:30.325Z,101574.70
2019-06-26T02:00:01.656Z,101570.58
2019-06-26T02:02:32.960Z,101576.41
2019-06-26T02:05:05.910Z,101581.96
2019-06-26T02:07:37.093Z,101577.45
2019-06-26T02:10:09.022Z,101576.88
2019-06-26T02:12:40.333Z,101582.98
2019-06-26T02:15:11.662Z,101585.15
2019-06-26T02:17:42.974Z,101582.66
2019-06-26T02:20:14.526Z,101578.52
2019-06-26T02:22:48.705Z,101580.45
2019-06-26T02:25:18.869Z,101583.77
2019-06-26T02:27:50.065Z,101581.85
2019-06-26T02:30:21.704Z,101589.61
2019-06-26T02:32:52.942Z,101586.55
2019-06-26T02:35:24.280Z,101589.31
2019-06-26T02:37:55.560Z,101592.08
2019-06-26T02:40:26.773Z,101589.59
2019-06-26T02:42:58.152Z,101587.97
2019-06-26T02:45:29.409Z,101594.64
2019-06-26T02:48:00.676Z,101589.64
2019-06-26T02:50:31.968Z,101589.66
2019-06-26T02:53:03.237Z,101588.00
2019-06-26T02:55:34.629Z,101594.94
2019-06-26T02:58:05.909Z,101593.23
2019-06-26T03:00:37.233Z,101594.09
2019-06-26T03:03:08.415Z,101599.37
2019-06-26T03:05:39.652Z,101592.34
2019-06-26T03:08:10.848Z,101592.12
2019-06-26T03:10:42.098Z,101596.86
2019-06-26T03:13:13.297Z,101595.17
2019-06-26T03:15:44.552Z,101592.69
2019-06-26T03:18:15.756Z,101593.22
2019-06-26T03:20:50.242Z,101595.16
2019-06-26T03:23:21.423Z,101595.95
2019-06-26T03:25:58.720Z,101595.13
2019-06-26T03:28:30.009Z,101591.19
2019-06-26T03:31:01.200Z,101595.44
2019-06-26T03:33:32.413Z,101593.52
2019-06-26T03:36:03.613Z,101593.22
2019-06-26T03:38:34.845Z,101600.42
2019-06-26T03:41:06.055Z,101595.44
2019-06-26T03:43:37.267Z,101590.26
2019-06-26T03:46:08.505Z,101597.70
2019-06-26T03:48:39.730Z,101601.93
2019-06-26T03:51:13.933Z,101595.31
2019-06-26T03:53:43.866Z,101591.69
2019-06-26T03:56:15.103Z,101591.70
2019-06-26T03:58:46.319Z,101597.53
2019-06-26T04:01:17.520Z,101591.75
2019-06-26T04:03:50.224Z,101592.02
2019-06-26T04:06:21.409Z,101591.17
2019-06-26T04:08:52.667Z,101594.80
2019-06-26T04:11:23.867Z,101594.80
2019-06-26T04:13:55.111Z,101596.20
2019-06-26T04:16:26.285Z,101597.87
2019-06-26T04:18:57.513Z,101599.82
2019-06-26T04:21:28.814Z,101596.80
2019-06-26T04:24:00.056Z,101595.67
2019-06-26T04:26:31.213Z,101594.88
2019-06-26T04:29:02.431Z,101592.37
2019-06-26T04:31:33.643Z,101598.48
2019-06-26T04:34:04.855Z,101597.08
2019-06-26T04:36:36.090Z,101602.89
2019-06-26T04:39:07.628Z,101599.00
2019-06-26T04:41:38.853Z,101607.91
2019-06-26T04:44:10.046Z,101607.60
2019-06-26T04:46:41.195Z,101605.89
2019-06-26T04:49:12.409Z,101607.86
2019-06-26T04:51:43.500Z,101614.77
2019-06-26T04:54:14.703Z,101611.73
2019-06-26T04:56:46.419Z,101608.34
2019-06-26T04:59:17.651Z,101604.41
2019-06-26T05:01:48.823Z,101611.55
2019-06-26T05:04:20.054Z,101614.43
2019-06-26T05:06:51.230Z,101614.08
2019-06-26T05:09:22.434Z,101618.76
2019-06-26T05:11:53.616Z,101624.61
2019-06-26T05:14:24.847Z,101623.11
2019-06-26T05:16:56.043Z,101620.32
2019-06-26T05:19:27.292Z,101620.80
2019-06-26T05:21:58.296Z,101625.70
2019-06-26T05:24:29.470Z,101620.70
2019-06-26T05:27:00.646Z,101625.55
2019-06-26T05:29:31.861Z,101621.13
2019-06-26T05:32:03.052Z,101625.32
2019-06-26T05:34:34.203Z,101623.59
2019-06-26T05:37:05.491Z,101630.14
2019-06-26T05:39:36.711Z,101618.95
2019-06-26T05:42:07.884Z,101628.75
2019-06-26T05:44:39.189Z,101620.00
2019-06-26T05:47:10.408Z,101619.73
2019-06-26T05:49:41.619Z,101617.64
2019-06-26T05:52:16.387Z,101613.34
2019-06-26T05:54:45.713Z,101612.03
2019-06-26T05:57:16.973Z,101612.67
2019-06-26T05:59:48.222Z,101614.23
2019-06-26T06:02:19.750Z,101612.52
2019-06-26T06:04:51.412Z,101618.80
2019-06-26T06:07:22.707Z,101613.78
2019-06-26T06:09:53.940Z,101610.98
2019-06-26T06:12:25.162Z,101620.66
2019-06-26T06:14:56.384Z,101612.63
2019-06-26T06:17:27.604Z,101614.89
2019-06-26T06:19:58.835Z,101618.07
2019-06-26T06:22:30.139Z,101623.55
2019-06-26T06:25:01.752Z,101617.64
2019-06-26T06:27:34.781Z,101616.20
2019-06-26T06:30:06.838Z,101616.36
2019-06-26T06:32:38.150Z,101619.66
2019-06-26T06:35:09.685Z,101621.03
2019-06-26T06:37:40.841Z,101609.34
2019-06-26T06:40:12.170Z,101606.81
2019-06-26T06:42:43.365Z,101613.20
2019-06-26T06:45:15.089Z,101607.98
2019-06-26T06:47:46.271Z,101607.69
2019-06-26T06:50:17.634Z,101598.48
2019-06-26T06:52:50.966Z,101594.90
2019-06-26T06:55:22.470Z,101597.03
2019-06-26T06:57:53.736Z,101597.87
2019-06-26T07:00:25.662Z,101597.45
2019-06-26T07:02:57.027Z,101597.14
2019-06-26T07:05:31.249Z,101596.87
2019-06-26T07:08:02.433Z,101593.82
2019-06-26T07:10:33.643Z,101587.92
2019-06-26T07:13:04.845Z,101588.92
2019-06-26T07:15:36.190Z,101588.36
2019-06-26T07:18:07.329Z,101585.32
2019-06-26T07:20:38.583Z,101585.48
2019-06-26T07:23:09.788Z,101588.91
2019-06-26T07:25:41.488Z,101583.17
2019-06-26T07:28:12.818Z,101583.97
2019-06-26T07:30:45.143Z,101589.37
2019-06-26T07:33:16.433Z,101584.40
2019-06-26T07:35:47.668Z,101584.50
2019-06-26T07:38:18.842Z,101590.19
2019-06-26T07:40:50.089Z,101588.28
2019-06-26T07:43:21.394Z,101590.81
2019-06-26T07:45:52.650Z,101582.05
2019-06-26T07:48:23.826Z,101581.20
2019-06-26T07:50:55.031Z,101586.42
2019-06-26T07:53:26.353Z,101584.88
2019-06-26T07:55:57.576Z,101588.27
2019-06-26T07:58:31.774Z,101587.38
2019-06-26T08:01:09.021Z,101586.66
2019-06-26T08:03:41.028Z,101590.23
2019-06-26T08:06:12.469Z,101587.52
2019-06-26T08:08:43.850Z,101582.06
2019-06-26T08:11:15.116Z,101581.09
2019-06-26T08:13:46.368Z,101582.53
2019-06-26T08:16:19.859Z,101572.90
2019-06-26T08:18:51.391Z,101571.29
2019-06-26T08:21:22.691Z,101570.53
2019-06-26T08:23:53.880Z,101561.30
2019-06-26T08:26:42.641Z,101564.95
2019-06-26T08:29:35.301Z,101566.34
2019-06-26T08:32:08.179Z,101571.94
2019-06-26T08:34:40.535Z,101567.29
2019-06-26T08:37:11.785Z,101543.48
2019-06-26T08:39:45.273Z,101552.56
2019-06-26T08:42:16.323Z,101547.64
2019-06-26T08:44:48.955Z,101545.39
2019-06-26T08:47:21.730Z,101551.75
2019-06-26T08:49:53.050Z,101538.83
2019-06-26T08:52:24.532Z,101531.55
2019-06-26T08:54:57.033Z,101536.11
2019-06-26T08:57:28.833Z,101529.23
2019-06-26T09:00:02.311Z,101525.36
2019-06-26T09:02:34.693Z,101523.39
2019-06-26T09:05:08.168Z,101529.32
2019-06-26T09:07:40.762Z,101523.81
2019-06-26T09:10:12.684Z,101516.77
2019-06-26T09:12:44.070Z,101518.80
2019-06-26T09:15:16.032Z,101511.07
2019-06-26T09:17:50.433Z,101515.06
2019-06-26T09:20:34.177Z,101511.41
2019-06-26T09:23:07.310Z,101518.35
2019-06-26T09:25:41.681Z,101518.98
2019-06-26T09:28:13.340Z,101512.93
2019-06-26T09:30:47.390Z,101506.33
2019-06-26T09:33:21.799Z,101511.69
2019-06-26T09:35:52.628Z,101506.23
2019-06-26T09:38:23.860Z,101497.56
2019-06-26T09:40:54.966Z,101507.22
2019-06-26T09:43:26.254Z,101498.49
2019-06-26T09:46:00.398Z,101487.41
2019-06-26T09:48:32.861Z,101494.26
2019-06-26T09:51:04.070Z,101490.56
2019-06-26T09:53:46.734Z,101492.08
2019-06-26T09:56:09.524Z,101490.85
2019-06-26T09:58:40.878Z,101495.14
2019-06-26T10:01:15.796Z,101489.61
2019-06-26T10:03:49.440Z,101487.75
2019-06-26T10:06:21.119Z,101484.58
2019-06-26T10:08:54.328Z,101477.77
2019-06-26T10:11:25.566Z,101485.39
2019-06-26T10:13:56.815Z,101484.36
2019-06-26T10:16:28.145Z,101479.93
2019-06-26T10:19:09.550Z,101475.50
2019-06-26T10:21:32.480Z,101474.61
2019-06-26T10:24:03.974Z,101470.50
2019-06-26T10:26:35.555Z,101472.86
2019-06-26T10:29:06.773Z,101473.53
2019-06-26T10:31:38.006Z,101475.80
2019-06-26T10:34:10.323Z,101468.40
2019-06-26T10:36:41.834Z,101474.05
2019-06-26T10:39:13.049Z,101467.91
2019-06-26T10:41:44.319Z,101459.14
2019-06-26T10:44:15.635Z,101446.83
2019-06-26T10:46:46.896Z,101460.37
2019-06-26T10:49:26.892Z,101451.09
2019-06-26T10:51:51.389Z,101451.47
2019-06-26T10:54:22.701Z,101453.90
2019-06-26T10:56:53.927Z,101458.81
2019-06-26T10:59:25.161Z,101459.10
2019-06-26T11:01:56.669Z,101451.25
2019-06-26T11:04:28.061Z,101445.02
2019-06-26T11:06:59.427Z,101445.02
2019-06-26T11:09:30.768Z,101442.27
2019-06-26T11:12:02.494Z,101441.84
2019-06-26T11:14:33.855Z,101438.06
2019-06-26T11:17:05.969Z,101440.52
2019-06-26T11:19:43.659Z,101427.84
2019-06-26T11:22:10.896Z,101428.89
2019-06-26T11:24:42.369Z,101424.08
2019-06-26T11:27:13.687Z,101418.33
2019-06-26T11:30:08.251Z,101424.08
2019-06-26T11:32:42.193Z,101414.48
2019-06-26T11:35:15.617Z,101419.52
2019-06-26T11:37:47.864Z,101415.27
2019-06-26T11:40:19.585Z,101409.30
2019-06-26T11:42:50.805Z,101401.47
2019-06-26T11:45:23.549Z,101404.62
2019-06-26T11:47:56.358Z,101403.28
2019-06-26T11:50:29.934Z,101401.01
2019-06-26T11:53:01.118Z,101400.39
2019-06-26T11:55:32.289Z,101397.47
2019-06-26T11:58:04.657Z,101396.47
2019-06-26T12:00:35.883Z,101391.64
2019-06-26T12:03:07.294Z,101397.18
2019-06-26T12:06:07.623Z,101403.98
2019-06-26T12:08:28.025Z,101396.13
2019-06-26T12:11:15.663Z,101400.34
2019-06-26T12:14:03.557Z,101385.67
2019-06-26T12:16:36.318Z,101380.50
2019-06-26T12:19:19.739Z,101375.57
2019-06-26T12:22:05.462Z,101380.95
2019-06-26T12:24:39.475Z,101378.24
2019-06-26T12:27:27.037Z,101369.55
2019-06-26T12:30:16.056Z,101363.80
2019-06-26T12:33:01.554Z,101359.45
2019-06-26T12:35:20.349Z,101366.61
2019-06-26T12:37:54.071Z,101351.81
2019-06-26T12:40:30.953Z,101352.55
2019-06-26T12:43:00.194Z,101351.73
2019-06-26T12:45:32.114Z,101349.66
2019-06-26T12:48:05.040Z,101349.17
2019-06-26T12:50:52.956Z,101347.42
2019-06-26T12:53:40.555Z,101341.96
2019-06-26T12:56:12.052Z,101344.47
2019-06-26T12:58:43.356Z,101339.69
2019-06-26T13:01:32.374Z,101331.61
2019-06-26T13:04:03.813Z,101326.54
2019-06-26T13:06:35.669Z,101329.67
2019-06-26T13:09:08.396Z,101329.36
2019-06-26T13:11:39.838Z,101329.20
2019-06-26T13:14:11.153Z,101328.33
2019-06-26T13:16:44.588Z,101318.05
2019-06-26T13:19:16.462Z,101324.26
2019-06-26T13:21:47.927Z,101320.42
2019-06-26T13:24:19.349Z,101305.29
2019-06-26T13:26:54.268Z,101311.73
2019-06-26T13:29:23.706Z,101309.39
2019-06-26T13:31:54.983Z,101305.00
2019-06-26T13:34:26.171Z,101299.94
2019-06-26T13:36:57.445Z,101297.97
2019-06-26T13:39:28.645Z,101290.84
2019-06-26T13:41:59.916Z,101279.56
2019-06-26T13:44:31.186Z,101286.33
2019-06-26T13:47:02.533Z,101282.97
2019-06-26T13:49:33.734Z,101268.74
2019-06-26T13:52:04.980Z,101266.53
2019-06-26T13:54:36.290Z,101263.63
2019-06-26T13:57:07.620Z,101263.13
2019-06-26T13:59:38.863Z,101259.43
2019-06-26T14:02:11.220Z,101258.45
2019-06-26T14:04:45.244Z,101247.33
2019-06-26T14:07:16.455Z,101249.72
2019-06-26T14:09:47.675Z,101246.53
2019-06-26T14:12:19.409Z,101243.69
2019-06-26T14:14:57.660Z,101243.98
2019-06-26T14:17:28.050Z,101240.55
2019-06-26T14:19:59.221Z,101234.88
2019-06-26T14:22:30.614Z,101234.09
2019-06-26T14:25:03.694Z,101229.88
2019-06-26T14:27:36.059Z,101222.47
2019-06-26T14:30:08.097Z,101222.97
2019-06-26T14:32:39.463Z,101221.17
2019-06-26T14:35:10.879Z,101222.05
2019-06-26T14:37:43.001Z,101218.72
2019-06-26T14:40:16.067Z,101217.83
2019-06-26T14:42:52.781Z,101214.99
2019-06-26T14:45:26.715Z,101214.19
2019-06-26T14:48:06.464Z,101207.51
2019-06-26T14:50:41.728Z,101207.47
2019-06-26T14:53:12.967Z,101208.45
2019-06-26T14:55:44.168Z,101201.86
2019-06-26T14:58:15.394Z,101203.70
2019-06-26T15:00:52.109Z,101204.12
2019-06-26T15:03:23.476Z,101208.96
2019-06-26T15:05:54.790Z,101199.25
2019-06-26T15:08:26.083Z,101200.45
2019-06-26T15:10:58.974Z,101206.06
2019-06-26T15:13:30.181Z,101198.58
2019-06-26T15:16:01.550Z,101198.07
2019-06-26T15:18:32.776Z,101202.10
2019-06-26T15:21:03.970Z,101195.52
2019-06-26T15:23:35.359Z,101195.03
2019-06-26T15:26:06.566Z,101191.72
2019-06-26T15:28:37.864Z,101185.74
2019-06-26T15:31:09.070Z,101179.77
2019-06-26T15:33:40.301Z,101179.09
2019-06-26T15:36:11.653Z,101183.47
2019-06-26T15:38:42.903Z,101183.91
2019-06-26T15:41:14.095Z,101175.41
2019-06-26T15:43:45.337Z,101177.14
2019-06-26T15:46:16.525Z,101175.22
2019-06-26T15:48:50.286Z,101171.44
2019-06-26T15:51:20.608Z,101173.09
2019-06-26T15:53:51.766Z,101174.32
2019-06-26T15:56:22.945Z,101168.41
2019-06-26T15:58:54.793Z,101170.96
2019-06-26T16:01:25.968Z,101163.69
2019-06-26T16:03:57.309Z,101165.19
2019-06-26T16:06:28.606Z,101165.59
2019-06-26T16:08:59.800Z,101160.73
2019-06-26T16:11:31.035Z,101150.91
2019-06-26T16:14:02.214Z,101152.31
2019-06-26T16:16:34.848Z,101154.06
2019-06-26T16:19:07.628Z,101150.98
2019-06-26T16:21:38.965Z,101155.34
2019-06-26T16:24:11.586Z,101155.19
2019-06-26T16:26:42.796Z,101155.44
2019-06-26T16:29:13.994Z,101149.88
2019-06-26T16:31:45.315Z,101154.05
2019-06-26T16:34:16.537Z,101149.09
2019-06-26T16:36:47.943Z,101150.77
2019-06-26T16:39:19.225Z,101144.05
2019-06-26T16:41:50.466Z,101150.72
2019-06-26T16:44:22.359Z,101152.54
2019-06-26T16:46:53.617Z,101150.88
2019-06-26T16:49:24.815Z,101151.42
2019-06-26T16:51:56.045Z,101148.13
2019-06-26T16:54:27.237Z,101152.55
2019-06-26T16:56:58.487Z,101149.58
2019-06-26T16:59:29.782Z,101147.59
2019-06-26T17:02:00.998Z,101154.59
2019-06-26T17:04:32.176Z,101152.91
2019-06-26T17:07:03.477Z,101151.95
2019-06-26T17:09:34.739Z,101148.74
2019-06-26T17:12:05.976Z,101147.49
2019-06-26T17:14:37.196Z,101135.17
2019-06-26T17:17:09.991Z,101141.17
2019-06-26T17:19:41.204Z,101145.22
2019-06-26T17:22:12.439Z,101137.45
2019-06-26T17:24:43.606Z,101140.16
2019-06-26T17:27:14.939Z,101139.92
2019-06-26T17:29:46.117Z,101142.48
2019-06-26T17:32:17.366Z,101137.69
2019-06-26T17:34:48.567Z,101141.34
2019-06-26T17:37:19.889Z,101140.64
2019-06-26T17:39:52.654Z,101146.73
2019-06-26T17:42:23.911Z,101141.45
2019-06-26T17:44:55.089Z,101139.66
2019-06-26T17:47:26.327Z,101143.36
2019-06-26T17:49:57.524Z,101143.53
2019-06-26T17:52:28.733Z,101147.10
2019-06-26T17:55:02.998Z,101144.39
2019-06-26T17:57:34.225Z,101144.21
2019-06-26T18:00:10.674Z,101151.19
2019-06-26T18:02:41.886Z,101145.61
2019-06-26T18:05:13.659Z,101149.92
2019-06-26T18:07:45.045Z,101151.17
2019-06-26T18:10:16.613Z,101148.31
2019-06-26T18:12:47.868Z,101148.30
2019-06-26T18:15:19.058Z,101150.12
2019-06-26T18:17:50.274Z,101148.27
2019-06-26T18:20:21.455Z,101147.77
2019-06-26T18:23:05.946Z,101143.53
2019-06-26T18:25:25.661Z,101147.56
2019-06-26T18:27:56.874Z,101150.97
2019-06-26T18:30:28.082Z,101148.09
2019-06-26T18:32:59.328Z,101144.05
2019-06-26T18:35:31.413Z,101139.23
2019-06-26T18:38:02.649Z,101148.41
2019-06-26T18:40:33.831Z,101144.26
2019-06-26T18:43:05.263Z,101149.50
2019-06-26T18:45:36.450Z,101145.27
2019-06-26T18:48:07.702Z,101146.98
2019-06-26T18:50:38.895Z,101143.31
2019-06-26T18:53:10.111Z,101138.38
2019-06-26T18:55:41.297Z,101139.14
2019-06-26T18:58:12.570Z,101135.14
2019-06-26T19:00:43.866Z,101138.23
2019-06-26T19:03:15.116Z,101136.77
2019-06-26T19:05:46.312Z,101132.52
2019-06-26T19:08:17.874Z,101129.50
2019-06-26T19:10:49.091Z,101126.52
2019-06-26T19:13:20.699Z,101123.80
2019-06-26T19:15:52.004Z,101128.55
2019-06-26T19:18:23.256Z,101126.47
2019-06-26T19:20:54.433Z,101117.28
2019-06-26T19:23:25.686Z,101118.12
2019-06-26T19:25:56.892Z,101113.08
2019-06-26T19:28:28.181Z,101112.02
2019-06-26T19:30:59.407Z,101114.27
2019-06-26T19:33:30.608Z,101118.89
2019-06-26T19:36:02.057Z,101121.25
2019-06-26T19:38:33.312Z,101123.12
2019-06-26T19:41:08.340Z,101116.90
2019-06-26T19:43:37.772Z,101116.34
2019-06-26T19:46:08.968Z,101116.81
2019-06-26T19:48:40.201Z,101116.22
2019-06-26T19:51:11.408Z,101117.78
2019-06-26T19:53:42.777Z,101120.86
2019-06-26T19:56:13.972Z,101124.34
2019-06-26T19:58:45.198Z,101119.13
2019-06-26T20:01:17.099Z,101118.22
2019-06-26T20:03:48.356Z,101116.94
2019-06-26T20:06:19.439Z,101114.91
2019-06-26T20:08:56.103Z,101112.55
2019-06-26T20:11:23.570Z,101118.39
2019-06-26T20:13:54.761Z,101107.90
2019-06-26T20:16:25.969Z,101114.03
2019-06-26T20:18:57.196Z,101115.20
2019-06-26T20:21:28.418Z,101119.50
2019-06-26T20:23:59.666Z,101103.75
2019-06-26T20:26:30.803Z,101112.31
2019-06-26T20:29:01.935Z,101111.42
2019-06-26T20:31:33.215Z,101105.63
2019-06-26T20:34:04.532Z,101112.36
2019-06-26T20:36:35.711Z,101114.34
2019-06-26T20:39:06.862Z,101102.75
2019-06-26T20:41:38.050Z,101103.01
2019-06-26T20:44:09.281Z,101108.02
2019-06-26T20:46:40.487Z,101105.53
2019-06-26T20:49:11.733Z,101108.02
2019-06-26T20:51:42.909Z,101101.12
2019-06-26T20:54:14.138Z,101100.86
2019-06-26T20:56:45.349Z,101098.71
2019-06-26T20:59:16.610Z,101094.83
2019-06-26T21:01:47.808Z,101094.30
2019-06-26T21:04:19.053Z,101087.67
2019-06-26T21:06:50.227Z,101091.28
2019-06-26T21:09:21.554Z,101098.26
2019-06-26T21:11:52.769Z,101091.61
2019-06-26T21:14:24.008Z,101093.81
2019-06-26T21:16:55.207Z,101094.41
2019-06-26T21:19:26.454Z,101096.62
2019-06-26T21:21:57.662Z,101096.03
2019-06-26T21:24:28.890Z,101092.98
2019-06-26T21:27:00.088Z,101097.10
2019-06-26T21:29:31.351Z,101091.03
2019-06-26T21:32:02.533Z,101089.69
2019-06-26T21:34:33.775Z,101086.38
2019-06-26T21:37:04.952Z,101085.83
2019-06-26T21:39:36.208Z,101085.56
2019-06-26T21:42:07.413Z,101080.28
2019-06-26T21:44:38.631Z,101081.40
2019-06-26T21:47:09.851Z,101076.15
2019-06-26T21:49:41.194Z,101073.08
2019-06-26T21:52:12.431Z,101067.83
2019-06-26T21:54:43.679Z,101070.87
2019-06-26T21:57:14.893Z,101063.95
2019-06-26T21:59:46.628Z,101069.76
2019-06-26T22:02:17.827Z,101071.44
2019-06-26T22:04:49.079Z,101063.66
2019-06-26T22:07:20.372Z,101062.03
2019-06-26T22:09:51.693Z,101058.70
2019-06-26T22:12:22.889Z,101053.98
2019-06-26T22:14:54.193Z,101055.09
2019-06-26T22:17:25.356Z,101050.39
2019-06-26T22:19:56.591Z,101052.31
2019-06-26T22:22:27.748Z,101049.30
2019-06-26T22:24:59.010Z,101054.28
2019-06-26T22:27:30.264Z,101049.84
2019-06-26T22:30:01.525Z,101051.23
2019-06-26T22:32:32.767Z,101040.98
2019-06-26T22:35:05.893Z,101043.73
2019-06-26T22:37:37.106Z,101043.46
2019-06-26T22:40:08.737Z,101044.27
2019-06-26T22:42:39.905Z,101045.94
2019-06-26T22:45:11.350Z,101043.17
2019-06-26T22:47:42.550Z,101038.14
2019-06-26T22:50:13.912Z,101042.86
2019-06-26T22:52:45.112Z,101032.91
2019-06-26T22:55:16.354Z,101029.62
2019-06-26T22:57:47.559Z,101024.66
2019-06-26T23:00:20.119Z,101018.55
2019-06-26T23:02:51.294Z,101014.95
2019-06-26T23:05:22.529Z,101013.83
2019-06-26T23:07:53.829Z,101011.38
2019-06-26T23:10:25.220Z,101011.61
2019-06-26T23:12:56.398Z,101003.56
2019-06-26T23:15:27.650Z,101002.72
2019-06-26T23:17:58.859Z,101007.99
2019-06-26T23:20:30.116Z,101004.91
2019-06-26T23:23:01.448Z,100999.09
2019-06-26T23:25:32.697Z,100996.60
2019-06-26T23:28:03.868Z,100999.38
2019-06-26T23:33:41.424Z,100998.00
2019-06-26T23:36:12.832Z,100998.55
2019-06-26T23:38:44.343Z,100998.84
2019-06-26T23:41:20.034Z,100988.87
2019-06-26T23:43:51.450Z,100981.09
2019-06-26T23:46:22.808Z,100979.13
2019-06-26T23:48:54.009Z,100973.84
2019-06-26T23:51:26.975Z,100967.16
2019-06-26T23:54:02.812Z,100961.60
2019-06-26T23:56:42.819Z,100963.30
2019-06-26T23:59:31.490Z,100953.10
